createdAt,value
2023-05-10T00:01:15.109Z,996.8
2023-05-10T00:02:31.389Z,996.8
2023-05-10T00:03:47.676Z,996.8
2023-05-10T00:05:03.980Z,996.8
2023-05-10T00:06:20.262Z,996.8
2023-05-10T00:07:36.563Z,996.8
2023-05-10T00:08:52.863Z,996.8
2023-05-10T00:10:09.155Z,996.8
2023-05-10T00:11:25.453Z,996.7
2023-05-10T00:12:41.732Z,996.7
2023-05-10T00:13:58.032Z,996.7
2023-05-10T00:15:14.332Z,996.7
2023-05-10T00:16:30.628Z,996.7
2023-05-10T00:17:45.942Z,996.7
2023-05-10T00:19:02.236Z,996.6
2023-05-10T00:20:18.515Z,996.7
2023-05-10T00:21:34.805Z,996.6
2023-05-10T00:22:51.099Z,996.6
2023-05-10T00:24:07.425Z,996.7
2023-05-10T00:25:23.714Z,996.7
2023-05-10T00:26:39.016Z,996.6
2023-05-10T00:27:55.314Z,996.6
2023-05-10T00:29:11.609Z,996.6
2023-05-10T00:30:27.892Z,996.6
2023-05-10T00:31:44.183Z,996.6
2023-05-10T00:33:00.472Z,996.6
2023-05-10T00:34:16.797Z,996.6
2023-05-10T00:35:33.059Z,996.6
2023-05-10T00:36:49.357Z,996.6
2023-05-10T00:38:05.648Z,996.5
2023-05-10T00:39:21.959Z,996.5
2023-05-10T00:40:38.260Z,996.5
2023-05-10T00:41:54.542Z,996.5
2023-05-10T00:43:09.839Z,996.4
2023-05-10T00:44:26.147Z,996.4
2023-05-10T00:45:42.433Z,996.4
2023-05-10T00:46:58.734Z,996.4
2023-05-10T00:48:15.028Z,996.4
2023-05-10T00:49:31.327Z,996.4
2023-05-10T00:50:47.604Z,996.4
2023-05-10T00:52:03.926Z,996.4
2023-05-10T00:53:20.209Z,996.4
2023-05-10T00:54:36.494Z,996.4
2023-05-10T00:55:52.786Z,996.4
2023-05-10T00:57:09.075Z,996.3
2023-05-10T00:58:25.366Z,996.3
2023-05-10T00:59:40.696Z,996.3
2023-05-10T01:00:56.969Z,996.3
2023-05-10T01:02:13.286Z,996.2
2023-05-10T01:03:29.577Z,996.2
2023-05-10T01:04:45.858Z,996.3
2023-05-10T01:06:02.160Z,996.3
2023-05-10T01:07:18.457Z,996.2
2023-05-10T01:08:34.750Z,996.3
2023-05-10T01:09:51.026Z,996.2
2023-05-10T01:11:07.342Z,996.2
2023-05-10T01:12:23.625Z,996.3
2023-05-10T01:13:39.911Z,996.3
2023-05-10T01:14:56.212Z,996.3
2023-05-10T01:16:11.526Z,996.3
2023-05-10T01:17:27.815Z,996.3
2023-05-10T01:18:44.100Z,996.3
2023-05-10T01:20:00.408Z,996.3
2023-05-10T01:21:16.709Z,996.3
2023-05-10T01:22:32.995Z,996.3
2023-05-10T01:23:49.300Z,996.4
2023-05-10T01:25:05.591Z,996.3
2023-05-10T01:26:21.873Z,996.3
2023-05-10T01:27:38.168Z,996.2
2023-05-10T01:28:54.474Z,996.3
2023-05-10T01:30:10.759Z,996.2
2023-05-10T01:31:27.045Z,996.2
2023-05-10T01:32:42.364Z,996.2
2023-05-10T01:33:58.655Z,996.3
2023-05-10T01:35:14.000Z,996.3
2023-05-10T01:36:31.235Z,996.2
2023-05-10T01:37:47.538Z,996.3
2023-05-10T01:39:03.819Z,996.3
2023-05-10T01:40:20.119Z,996.2
2023-05-10T01:41:36.419Z,996.2
2023-05-10T01:42:52.699Z,996.2
2023-05-10T01:44:09.022Z,996.2
2023-05-10T01:45:25.300Z,996.2
2023-05-10T01:46:41.595Z,996.2
2023-05-10T01:47:57.907Z,996.2
2023-05-10T01:49:13.187Z,996.2
2023-05-10T01:50:29.497Z,996.1
2023-05-10T01:51:45.798Z,996.2
2023-05-10T01:53:02.066Z,996.2
2023-05-10T01:54:18.374Z,996.2
2023-05-10T01:55:34.660Z,996.2
2023-05-10T01:56:50.959Z,996.1
2023-05-10T01:58:07.253Z,996.1
2023-05-10T01:59:23.549Z,996.2
2023-05-10T02:00:39.846Z,996.1
2023-05-10T02:01:56.142Z,996.2
2023-05-10T02:03:12.432Z,996.1
2023-05-10T02:04:28.718Z,996.1
2023-05-10T02:05:44.035Z,996.1
2023-05-10T02:07:00.334Z,996.1
2023-05-10T02:08:16.622Z,996.1
2023-05-10T02:09:32.922Z,996.1
2023-05-10T02:10:49.212Z,996.1
2023-05-10T02:12:05.506Z,996.1
2023-05-10T02:13:21.803Z,996.1
2023-05-10T02:14:38.082Z,996
2023-05-10T02:15:54.380Z,996
2023-05-10T02:17:10.667Z,996
2023-05-10T02:18:26.985Z,996
2023-05-10T02:19:43.271Z,996.1
2023-05-10T02:20:59.548Z,996.1
2023-05-10T02:22:14.874Z,996
2023-05-10T02:23:31.157Z,996
2023-05-10T02:24:47.450Z,996
2023-05-10T02:26:03.754Z,996
2023-05-10T02:27:20.000Z,996
2023-05-10T02:28:36.345Z,996
2023-05-10T02:29:52.637Z,996
2023-05-10T02:31:08.943Z,996
2023-05-10T02:32:25.228Z,995.9
2023-05-10T02:33:41.509Z,996
2023-05-10T02:34:57.821Z,996
2023-05-10T02:36:14.111Z,996
2023-05-10T02:37:30.412Z,996
2023-05-10T02:38:46.806Z,996
2023-05-10T02:40:03.115Z,996
2023-05-10T02:41:19.402Z,996
2023-05-10T02:42:35.690Z,996
2023-05-10T02:43:51.985Z,996
2023-05-10T02:45:08.285Z,996
2023-05-10T02:46:24.511Z,996
2023-05-10T02:47:40.818Z,995.9
2023-05-10T02:50:13.396Z,995.9
2023-05-10T02:51:29.645Z,996
2023-05-10T02:52:45.905Z,996
2023-05-10T02:54:02.184Z,995.9
2023-05-10T02:55:17.507Z,995.9
2023-05-10T02:56:33.000Z,995.9
2023-05-10T02:57:50.034Z,995.9
2023-05-10T02:59:06.329Z,995.9
2023-05-10T03:00:22.583Z,995.8
2023-05-10T03:01:38.826Z,995.9
2023-05-10T03:02:55.064Z,995.9
2023-05-10T03:04:11.317Z,995.9
2023-05-10T03:05:27.561Z,995.9
2023-05-10T03:06:43.780Z,995.9
2023-05-10T03:08:00.040Z,995.9
2023-05-10T03:09:16.269Z,995.9
2023-05-10T03:10:32.501Z,995.9
2023-05-10T03:11:47.761Z,995.9
2023-05-10T03:13:03.996Z,995.9
2023-05-10T03:14:20.239Z,995.9
2023-05-10T03:15:36.479Z,995.9
2023-05-10T03:16:52.739Z,995.9
2023-05-10T03:18:08.958Z,995.9
2023-05-10T03:19:25.217Z,995.9
2023-05-10T03:20:41.440Z,995.9
2023-05-10T03:21:57.694Z,995.9
2023-05-10T03:23:13.940Z,995.9
2023-05-10T03:24:30.157Z,995.9
2023-05-10T03:25:46.412Z,995.9
2023-05-10T03:27:02.655Z,995.9
2023-05-10T03:28:17.897Z,995.9
2023-05-10T03:29:34.150Z,995.9
2023-05-10T03:30:50.371Z,995.9
2023-05-10T03:32:06.620Z,995.9
2023-05-10T03:33:22.868Z,995.9
2023-05-10T03:34:39.000Z,995.9
2023-05-10T03:35:55.331Z,995.9
2023-05-10T03:37:11.583Z,995.9
2023-05-10T03:38:27.812Z,995.9
2023-05-10T03:39:44.061Z,995.9
2023-05-10T03:41:00.311Z,995.9
2023-05-10T03:42:16.561Z,995.9
2023-05-10T03:43:32.772Z,995.9
2023-05-10T03:44:48.038Z,996
2023-05-10T03:46:04.276Z,996
2023-05-10T03:47:20.507Z,996
2023-05-10T03:48:36.773Z,996
2023-05-10T03:49:53.015Z,996
2023-05-10T03:51:09.261Z,996
2023-05-10T03:52:25.475Z,996
2023-05-10T03:53:41.722Z,996
2023-05-10T03:54:57.954Z,996
2023-05-10T03:56:14.188Z,996
2023-05-10T03:57:30.455Z,996
2023-05-10T03:58:46.683Z,996
2023-05-10T04:00:02.916Z,995.9
2023-05-10T04:01:18.178Z,996
2023-05-10T04:02:34.409Z,995.9
2023-05-10T04:03:50.648Z,995.9
2023-05-10T04:05:06.910Z,996
2023-05-10T04:06:23.140Z,995.9
2023-05-10T04:07:39.371Z,995.9
2023-05-10T04:08:55.606Z,995.9
2023-05-10T04:10:11.852Z,995.9
2023-05-10T04:11:28.113Z,995.8
2023-05-10T04:12:44.340Z,995.8
2023-05-10T04:14:00.577Z,995.8
2023-05-10T04:15:16.820Z,995.9
2023-05-10T04:16:33.047Z,995.8
2023-05-10T04:17:48.329Z,995.8
2023-05-10T04:19:04.556Z,995.8
2023-05-10T04:20:20.790Z,995.8
2023-05-10T04:21:37.022Z,995.9
2023-05-10T04:22:53.258Z,995.9
2023-05-10T04:24:09.530Z,995.8
2023-05-10T04:25:25.756Z,995.8
2023-05-10T04:26:41.989Z,995.8
2023-05-10T04:27:58.232Z,995.8
2023-05-10T04:29:14.477Z,995.8
2023-05-10T04:30:30.712Z,995.8
2023-05-10T04:31:46.000Z,995.8
2023-05-10T04:33:03.182Z,995.8
2023-05-10T04:34:18.439Z,995.8
2023-05-10T04:35:34.690Z,995.9
2023-05-10T04:36:50.933Z,995.9
2023-05-10T04:38:07.169Z,995.8
2023-05-10T04:39:23.395Z,995.8
2023-05-10T04:40:39.653Z,995.8
2023-05-10T04:41:54.916Z,995.8
2023-05-10T04:43:11.139Z,995.8
2023-05-10T04:44:27.379Z,995.8
2023-05-10T04:45:43.616Z,995.8
2023-05-10T04:46:59.856Z,995.8
2023-05-10T04:48:16.105Z,995.8
2023-05-10T04:49:32.355Z,995.8
2023-05-10T04:50:48.576Z,995.8
2023-05-10T04:52:04.824Z,995.8
2023-05-10T04:53:21.057Z,995.8
2023-05-10T04:54:37.296Z,995.9
2023-05-10T04:55:53.555Z,995.8
2023-05-10T04:57:09.786Z,995.9
2023-05-10T04:58:25.039Z,995.9
2023-05-10T04:59:41.271Z,995.9
2023-05-10T05:00:57.533Z,995.9
2023-05-10T05:03:29.991Z,995.9
2023-05-10T05:04:46.249Z,996
2023-05-10T05:06:02.492Z,996
2023-05-10T05:07:18.714Z,996
2023-05-10T05:08:34.950Z,995.9
2023-05-10T05:09:51.207Z,995.9
2023-05-10T05:11:07.449Z,995.9
2023-05-10T05:12:23.686Z,995.9
2023-05-10T05:13:39.911Z,996
2023-05-10T05:14:55.194Z,996
2023-05-10T05:16:11.414Z,996
2023-05-10T05:17:27.651Z,996
2023-05-10T05:20:00.137Z,996
2023-05-10T05:21:16.377Z,996
2023-05-10T05:22:32.610Z,996
2023-05-10T05:25:05.086Z,996
2023-05-10T05:26:20.347Z,996
2023-05-10T05:27:35.624Z,996
2023-05-10T05:28:50.875Z,996
2023-05-10T05:30:07.110Z,995.9
2023-05-10T05:31:23.341Z,995.9
2023-05-10T05:32:39.596Z,995.9
2023-05-10T05:33:55.000Z,995.9
2023-05-10T05:35:12.060Z,996
2023-05-10T05:36:28.313Z,995.9
2023-05-10T05:37:44.560Z,995.9
2023-05-10T05:39:00.778Z,995.9
2023-05-10T05:40:16.052Z,995.9
2023-05-10T05:41:31.305Z,995.9
2023-05-10T05:42:47.539Z,995.9
2023-05-10T05:44:03.791Z,995.9
2023-05-10T05:45:20.034Z,995.9
2023-05-10T05:46:36.274Z,995.9
2023-05-10T05:47:52.507Z,995.9
2023-05-10T05:49:08.737Z,995.8
2023-05-10T05:50:24.980Z,995.9
2023-05-10T05:51:41.229Z,995.8
2023-05-10T05:52:57.453Z,995.9
2023-05-10T05:54:13.709Z,995.8
2023-05-10T05:55:29.936Z,996
2023-05-10T05:56:46.175Z,995.9
2023-05-10T05:58:01.437Z,995.9
2023-05-10T05:59:17.684Z,996
2023-05-10T06:00:33.930Z,995.9
2023-05-10T06:01:50.164Z,996
2023-05-10T06:03:06.410Z,996
2023-05-10T06:04:22.651Z,996
2023-05-10T06:05:37.910Z,996
2023-05-10T06:06:53.149Z,996
2023-05-10T06:08:09.404Z,996.1
2023-05-10T06:09:25.634Z,996
2023-05-10T06:10:41.872Z,996
2023-05-10T06:11:58.117Z,996
2023-05-10T06:13:14.366Z,996.1
2023-05-10T06:14:30.587Z,996.1
2023-05-10T06:15:46.000Z,996.2
2023-05-10T06:17:03.082Z,996
2023-05-10T06:18:19.308Z,996.1
2023-05-10T06:19:35.549Z,996.1
2023-05-10T06:20:51.794Z,996.1
2023-05-10T06:22:08.028Z,996.2
2023-05-10T06:23:23.299Z,996.1
2023-05-10T06:24:39.535Z,996.1
2023-05-10T06:25:55.762Z,996.1
2023-05-10T06:27:12.012Z,996
2023-05-10T06:28:28.244Z,996.2
2023-05-10T06:29:44.486Z,996.1
2023-05-10T06:30:59.768Z,996.1
2023-05-10T06:32:14.996Z,996.1
2023-05-10T06:33:31.263Z,996.1
2023-05-10T06:34:47.492Z,996.1
2023-05-10T06:36:03.725Z,996.1
2023-05-10T06:37:19.970Z,996.2
2023-05-10T06:38:36.202Z,996.1
2023-05-10T06:39:52.446Z,996.2
2023-05-10T06:41:08.693Z,996.1
2023-05-10T06:42:24.000Z,996.2
2023-05-10T06:43:41.165Z,996.2
2023-05-10T06:44:57.407Z,996.2
2023-05-10T06:46:13.000Z,996.1
2023-05-10T06:47:29.891Z,996.2
2023-05-10T06:48:45.164Z,996.1
2023-05-10T06:50:01.372Z,996.1
2023-05-10T06:51:17.611Z,996.2
2023-05-10T06:52:33.856Z,996.2
2023-05-10T06:53:50.093Z,996.2
2023-05-10T06:55:06.334Z,996.2
2023-05-10T06:56:22.578Z,996.2
2023-05-10T06:57:38.819Z,996.2
2023-05-10T06:58:55.067Z,996.2
2023-05-10T07:00:11.312Z,996.2
2023-05-10T07:01:27.540Z,996.2
2023-05-10T07:02:43.777Z,996.2
2023-05-10T07:04:00.005Z,996.2
2023-05-10T07:05:15.263Z,996.2
2023-05-10T07:06:31.530Z,996.3
2023-05-10T07:07:47.769Z,996.3
2023-05-10T07:09:03.984Z,996.3
2023-05-10T07:10:20.000Z,996.2
2023-05-10T07:11:36.481Z,996.2
2023-05-10T07:12:52.700Z,996.3
2023-05-10T07:14:08.946Z,996.3
2023-05-10T07:15:25.186Z,996.3
2023-05-10T07:16:41.422Z,996.3
2023-05-10T07:17:57.677Z,996.3
2023-05-10T07:19:13.904Z,996.3
2023-05-10T07:20:30.152Z,996.3
2023-05-10T07:21:45.396Z,996.3
2023-05-10T07:23:01.660Z,996.4
2023-05-10T07:24:17.896Z,996.4
2023-05-10T07:25:34.120Z,996.4
2023-05-10T07:26:50.381Z,996.3
2023-05-10T07:28:06.599Z,996.4
2023-05-10T07:29:22.843Z,996.4
2023-05-10T07:30:39.083Z,996.4
2023-05-10T07:31:55.312Z,996.4
2023-05-10T07:33:11.560Z,996.4
2023-05-10T07:34:27.800Z,996.4
2023-05-10T07:35:44.034Z,996.4
2023-05-10T07:37:00.284Z,996.4
2023-05-10T07:38:15.540Z,996.5
2023-05-10T07:39:31.772Z,996.4
2023-05-10T07:40:48.000Z,996.4
2023-05-10T07:42:04.257Z,996.5
2023-05-10T07:43:20.509Z,996.4
2023-05-10T07:44:36.743Z,996.5
2023-05-10T07:45:52.967Z,996.5
2023-05-10T07:47:09.216Z,996.5
2023-05-10T07:48:25.446Z,996.5
2023-05-10T07:49:41.704Z,996.4
2023-05-10T07:50:57.937Z,996.5
2023-05-10T07:52:14.176Z,996.4
2023-05-10T07:53:30.408Z,996.5
2023-05-10T07:54:45.680Z,996.5
2023-05-10T07:56:01.904Z,996.5
2023-05-10T07:57:18.152Z,996.5
2023-05-10T07:58:34.390Z,996.5
2023-05-10T07:59:50.636Z,996.5
2023-05-10T08:01:06.867Z,996.4
2023-05-10T08:02:23.103Z,996.5
2023-05-10T08:03:39.344Z,996.5
2023-05-10T08:04:55.595Z,996.5
2023-05-10T08:06:11.825Z,996.6
2023-05-10T08:07:28.065Z,996.5
2023-05-10T08:08:44.298Z,996.6
2023-05-10T08:10:00.000Z,996.5
2023-05-10T08:11:15.801Z,996.6
2023-05-10T08:12:32.031Z,996.5
2023-05-10T08:13:48.000Z,996.5
2023-05-10T08:16:20.756Z,996.5
2023-05-10T08:17:37.007Z,996.5
2023-05-10T08:18:53.234Z,996.5
2023-05-10T08:20:09.483Z,996.6
2023-05-10T08:21:25.718Z,996.6
2023-05-10T08:22:41.954Z,996.6
2023-05-10T08:23:58.000Z,996.6
2023-05-10T08:25:14.446Z,996.7
2023-05-10T08:26:30.671Z,996.7
2023-05-10T08:27:45.937Z,996.6
2023-05-10T08:29:02.176Z,996.6
2023-05-10T08:30:18.405Z,996.7
2023-05-10T08:31:34.644Z,996.7
2023-05-10T08:32:50.903Z,996.7
2023-05-10T08:34:07.130Z,996.7
2023-05-10T08:35:23.380Z,996.7
2023-05-10T08:36:39.612Z,996.8
2023-05-10T08:37:55.852Z,996.8
2023-05-10T08:39:12.091Z,996.9
2023-05-10T08:40:28.340Z,996.9
2023-05-10T08:41:44.567Z,996.9
2023-05-10T08:43:00.809Z,997
2023-05-10T08:44:16.074Z,997
2023-05-10T08:45:32.298Z,997
2023-05-10T08:46:48.537Z,997
2023-05-10T08:48:04.000Z,997.1
2023-05-10T08:49:21.024Z,997
2023-05-10T08:50:37.261Z,997.1
2023-05-10T08:51:53.000Z,997.1
2023-05-10T08:53:09.745Z,997.1
2023-05-10T08:54:25.984Z,997.1
2023-05-10T08:55:42.214Z,997.1
2023-05-10T08:56:57.486Z,997.1
2023-05-10T08:58:13.738Z,997.2
2023-05-10T08:59:29.955Z,997.1
2023-05-10T09:00:46.211Z,997.2
2023-05-10T09:02:02.450Z,997.2
2023-05-10T09:03:18.689Z,997.2
2023-05-10T09:04:34.919Z,997.2
2023-05-10T09:05:51.152Z,997.2
2023-05-10T09:07:07.394Z,997.2
2023-05-10T09:08:23.644Z,997.3
2023-05-10T09:09:39.882Z,997.3
2023-05-10T09:10:56.116Z,997.3
2023-05-10T09:12:12.357Z,997.4
2023-05-10T09:13:27.612Z,997.4
2023-05-10T09:14:43.846Z,997.5
2023-05-10T09:16:00.099Z,997.4
2023-05-10T09:17:16.346Z,997.4
2023-05-10T09:18:32.572Z,997.5
2023-05-10T09:19:48.807Z,997.5
2023-05-10T09:21:05.049Z,997.5
2023-05-10T09:22:21.299Z,997.5
2023-05-10T09:23:37.524Z,997.5
2023-05-10T09:24:53.774Z,997.5
2023-05-10T09:26:10.009Z,997.5
2023-05-10T09:27:26.256Z,997.5
2023-05-10T09:28:42.484Z,997.5
2023-05-10T09:29:57.752Z,997.6
2023-05-10T09:31:14.002Z,997.6
2023-05-10T09:32:30.218Z,997.6
2023-05-10T09:33:46.477Z,997.6
2023-05-10T09:35:02.718Z,997.6
2023-05-10T09:36:18.954Z,997.5
2023-05-10T09:37:35.181Z,997.6
2023-05-10T09:38:51.427Z,997.6
2023-05-10T09:40:07.659Z,997.6
2023-05-10T09:41:23.906Z,997.6
2023-05-10T09:42:40.138Z,997.6
2023-05-10T09:43:56.376Z,997.6
2023-05-10T09:45:12.626Z,997.8
2023-05-10T09:46:27.872Z,997.6
2023-05-10T09:47:44.117Z,997.7
2023-05-10T09:49:00.363Z,997.8
2023-05-10T09:50:16.000Z,997.7
2023-05-10T09:51:32.000Z,997.8
2023-05-10T09:52:49.081Z,997.8
2023-05-10T09:54:05.328Z,997.8
2023-05-10T09:55:21.554Z,997.8
2023-05-10T09:56:37.804Z,997.8
2023-05-10T09:57:54.030Z,997.8
2023-05-10T09:59:10.274Z,997.8
2023-05-10T10:00:26.522Z,997.8
2023-05-10T10:01:42.763Z,997.8
2023-05-10T10:02:58.019Z,997.8
2023-05-10T10:04:14.251Z,997.9
2023-05-10T10:05:30.486Z,997.9
2023-05-10T10:06:46.740Z,997.9
2023-05-10T10:08:02.961Z,997.9
2023-05-10T10:09:19.204Z,997.9
2023-05-10T10:10:35.451Z,997.8
2023-05-10T10:11:51.691Z,997.9
2023-05-10T10:13:07.923Z,997.9
2023-05-10T10:14:24.164Z,997.9
2023-05-10T10:15:40.411Z,997.9
2023-05-10T10:16:56.659Z,997.8
2023-05-10T10:18:12.895Z,997.9
2023-05-10T10:19:28.138Z,997.9
2023-05-10T10:20:44.000Z,997.8
2023-05-10T10:22:00.634Z,997.9
2023-05-10T10:23:16.863Z,997.8
2023-05-10T10:24:33.110Z,997.8
2023-05-10T10:25:49.339Z,997.8
2023-05-10T10:27:05.597Z,997.9
2023-05-10T10:28:21.829Z,997.9
2023-05-10T10:29:38.078Z,997.8
2023-05-10T10:30:54.294Z,997.8
2023-05-10T10:32:10.547Z,997.9
2023-05-10T10:33:26.775Z,997.8
2023-05-10T10:34:43.032Z,997.8
2023-05-10T10:35:58.274Z,997.8
2023-05-10T10:37:14.512Z,997.8
2023-05-10T10:38:30.754Z,997.9
2023-05-10T10:39:46.999Z,997.9
2023-05-10T10:41:03.247Z,997.9
2023-05-10T10:42:19.487Z,997.9
2023-05-10T10:43:35.709Z,997.9
2023-05-10T10:44:51.952Z,997.9
2023-05-10T10:46:08.207Z,998
2023-05-10T10:47:24.432Z,998
2023-05-10T10:48:40.685Z,998
2023-05-10T10:49:56.920Z,998
2023-05-10T10:51:13.160Z,998
2023-05-10T10:52:28.406Z,998
2023-05-10T10:53:44.000Z,998
2023-05-10T10:55:00.893Z,998
2023-05-10T10:56:17.136Z,998
2023-05-10T10:57:33.374Z,998
2023-05-10T10:58:49.604Z,998
2023-05-10T11:00:05.859Z,998
2023-05-10T11:01:22.000Z,998
2023-05-10T11:02:38.338Z,998
2023-05-10T11:03:54.563Z,998.1
2023-05-10T11:05:10.810Z,998.1
2023-05-10T11:06:27.055Z,998.1
2023-05-10T11:07:43.281Z,998.1
2023-05-10T11:08:58.539Z,998.1
2023-05-10T11:10:14.796Z,998
2023-05-10T11:11:31.019Z,998
2023-05-10T11:12:47.275Z,998.1
2023-05-10T11:14:03.517Z,998.1
2023-05-10T11:15:19.742Z,998.1
2023-05-10T11:16:35.992Z,998.1
2023-05-10T11:17:52.219Z,998.1
2023-05-10T11:19:08.457Z,998.1
2023-05-10T11:20:24.728Z,998.1
2023-05-10T11:22:57.190Z,998.1
2023-05-10T11:24:13.437Z,998.1
2023-05-10T11:25:28.681Z,998.1
2023-05-10T11:26:44.914Z,998.1
2023-05-10T11:28:01.150Z,998.2
2023-05-10T11:29:17.395Z,998.3
2023-05-10T11:30:33.633Z,998.2
2023-05-10T11:31:49.870Z,998.1
2023-05-10T11:33:06.128Z,998.2
2023-05-10T11:34:22.358Z,998.2
2023-05-10T11:35:38.593Z,998.2
2023-05-10T11:36:54.837Z,998.2
2023-05-10T11:38:11.080Z,998.1
2023-05-10T11:39:27.327Z,998.1
2023-05-10T11:40:43.554Z,998.2
2023-05-10T11:41:58.818Z,998.2
2023-05-10T11:43:15.045Z,998.2
2023-05-10T11:44:31.307Z,998.2
2023-05-10T11:45:47.532Z,998.2
2023-05-10T11:47:03.790Z,998.2
2023-05-10T11:48:20.018Z,998.3
2023-05-10T11:49:36.263Z,998.3
2023-05-10T11:50:52.487Z,998.3
2023-05-10T11:52:08.732Z,998.2
2023-05-10T11:53:24.967Z,998.3
2023-05-10T11:54:41.218Z,998.2
2023-05-10T11:55:57.445Z,998.3
2023-05-10T11:57:13.689Z,998.3
2023-05-10T11:58:28.945Z,998.3
2023-05-10T11:59:45.177Z,998.3
2023-05-10T12:01:01.422Z,998.3
2023-05-10T12:02:17.670Z,998.2
2023-05-10T12:03:33.918Z,998.3
2023-05-10T12:04:50.000Z,998.3
2023-05-10T12:06:06.383Z,998.3
2023-05-10T12:07:22.633Z,998.3
2023-05-10T12:08:38.860Z,998.3
2023-05-10T12:09:55.117Z,998.3
2023-05-10T12:11:11.357Z,998.3
2023-05-10T12:12:27.576Z,998.4
2023-05-10T12:13:43.843Z,998.4
2023-05-10T12:14:59.074Z,998.4
2023-05-10T12:16:15.328Z,998.4
2023-05-10T12:17:31.561Z,998.4
2023-05-10T12:18:47.818Z,998.4
2023-05-10T12:20:04.030Z,998.4
2023-05-10T12:21:20.276Z,998.4
2023-05-10T12:22:36.528Z,998.4
2023-05-10T12:23:52.764Z,998.4
2023-05-10T12:25:09.001Z,998.4
2023-05-10T12:26:25.244Z,998.4
2023-05-10T12:27:41.499Z,998.4
2023-05-10T12:28:57.721Z,998.4
2023-05-10T12:30:13.957Z,998.4
2023-05-10T12:31:29.206Z,998.5
2023-05-10T12:32:45.448Z,998.6
2023-05-10T12:34:01.705Z,998.5
2023-05-10T12:35:17.931Z,998.5
2023-05-10T12:36:34.183Z,998.5
2023-05-10T12:37:50.403Z,998.5
2023-05-10T12:39:06.654Z,998.5
2023-05-10T12:40:22.886Z,998.5
2023-05-10T12:41:39.129Z,998.5
2023-05-10T12:42:55.379Z,998.5
2023-05-10T12:44:11.617Z,998.5
2023-05-10T12:45:27.847Z,998.5
2023-05-10T12:46:44.092Z,998.5
2023-05-10T12:47:59.339Z,998.5
2023-05-10T12:49:15.586Z,998.5
2023-05-10T12:50:31.828Z,998.5
2023-05-10T12:51:48.074Z,998.5
2023-05-10T12:53:04.311Z,998.6
2023-05-10T12:54:20.545Z,998.5
2023-05-10T12:55:36.777Z,998.5
2023-05-10T12:56:53.026Z,998.6
2023-05-10T12:58:09.260Z,998.5
2023-05-10T12:59:25.501Z,998.5
2023-05-10T13:00:41.744Z,998.5
2023-05-10T13:01:57.995Z,998.5
2023-05-10T13:03:14.233Z,998.5
2023-05-10T13:04:29.477Z,998.5
2023-05-10T13:05:45.746Z,998.5
2023-05-10T13:07:01.969Z,998.5
2023-05-10T13:08:18.192Z,998.5
2023-05-10T13:09:34.451Z,998.5
2023-05-10T13:10:50.686Z,998.5
2023-05-10T13:12:05.948Z,998.5
2023-05-10T13:13:22.188Z,998.5
2023-05-10T13:14:38.416Z,998.5
2023-05-10T13:15:54.662Z,998.5
2023-05-10T13:17:10.918Z,998.5
2023-05-10T13:18:27.137Z,998.5
2023-05-10T13:19:43.388Z,998.5
2023-05-10T13:20:59.646Z,998.5
2023-05-10T13:22:15.869Z,998.5
2023-05-10T13:23:32.117Z,998.4
2023-05-10T13:24:48.333Z,998.4
2023-05-10T13:26:04.598Z,998.4
2023-05-10T13:27:20.810Z,998.5
2023-05-10T13:28:36.072Z,998.4
2023-05-10T13:29:52.321Z,998.4
2023-05-10T13:31:08.558Z,998.4
2023-05-10T13:32:24.796Z,998.4
2023-05-10T13:33:41.048Z,998.5
2023-05-10T13:34:57.279Z,998.4
2023-05-10T13:36:13.508Z,998.4
2023-05-10T13:37:29.759Z,998.4
2023-05-10T13:38:45.997Z,998.4
2023-05-10T13:40:02.243Z,998.4
2023-05-10T13:41:18.476Z,998.4
2023-05-10T13:42:34.706Z,998.4
2023-05-10T13:43:50.946Z,998.4
2023-05-10T13:45:06.208Z,998.4
2023-05-10T13:46:22.443Z,998.3
2023-05-10T13:47:38.697Z,998.4
2023-05-10T13:48:54.918Z,998.3
2023-05-10T13:50:11.175Z,998.4
2023-05-10T13:51:27.414Z,998.3
2023-05-10T13:52:43.654Z,998.3
2023-05-10T13:53:59.885Z,998.3
2023-05-10T13:55:16.122Z,998.4
2023-05-10T13:56:32.375Z,998.3
2023-05-10T13:57:48.612Z,998.3
2023-05-10T13:59:04.839Z,998.4
2023-05-10T14:00:21.097Z,998.3
2023-05-10T14:01:36.347Z,998.3
2023-05-10T14:02:52.580Z,998.3
2023-05-10T14:04:08.851Z,998.3
2023-05-10T14:05:25.063Z,998.3
2023-05-10T14:06:41.307Z,998.3
2023-05-10T14:07:57.537Z,998.3
2023-05-10T14:09:13.780Z,998.3
2023-05-10T14:10:30.020Z,998.4
2023-05-10T14:11:46.260Z,998.3
2023-05-10T14:13:02.523Z,998.3
2023-05-10T14:14:18.739Z,998.3
2023-05-10T14:15:34.969Z,998.3
2023-05-10T14:16:51.208Z,998.3
2023-05-10T14:18:06.000Z,998.3
2023-05-10T14:19:22.718Z,998.3
2023-05-10T14:20:38.950Z,998.4
2023-05-10T14:21:55.197Z,998.3
2023-05-10T14:23:11.432Z,998.4
2023-05-10T14:24:27.668Z,998.3
2023-05-10T14:25:43.923Z,998.3
2023-05-10T14:27:00.150Z,998.4
2023-05-10T14:28:16.387Z,998.3
2023-05-10T14:29:32.654Z,998.4
2023-05-10T14:30:48.872Z,998.3
2023-05-10T14:33:21.349Z,998.3
2023-05-10T14:34:36.626Z,998.3
2023-05-10T14:35:52.838Z,998.4
2023-05-10T14:37:09.104Z,998.3
2023-05-10T14:38:25.336Z,998.4
2023-05-10T14:39:41.556Z,998.4
2023-05-10T14:40:57.805Z,998.4
2023-05-10T14:42:14.054Z,998.4
2023-05-10T14:43:30.291Z,998.4
2023-05-10T14:44:46.532Z,998.4
2023-05-10T14:46:02.768Z,998.4
2023-05-10T14:47:19.005Z,998.4
2023-05-10T14:48:35.251Z,998.4
2023-05-10T14:49:51.480Z,998.4
2023-05-10T14:51:06.745Z,998.4
2023-05-10T14:52:22.978Z,998.4
2023-05-10T14:53:39.212Z,998.4
2023-05-10T14:54:55.456Z,998.4
2023-05-10T14:56:11.705Z,998.4
2023-05-10T14:57:27.948Z,998.4
2023-05-10T14:58:44.185Z,998.4
2023-05-10T15:00:00.413Z,998.4
2023-05-10T15:01:16.654Z,998.5
2023-05-10T15:02:32.895Z,998.5
2023-05-10T15:03:49.143Z,998.5
2023-05-10T15:05:05.397Z,998.5
2023-05-10T15:06:21.614Z,998.5
2023-05-10T15:07:36.872Z,998.4
2023-05-10T15:08:53.110Z,998.5
2023-05-10T15:10:09.361Z,998.5
2023-05-10T15:11:25.590Z,998.5
2023-05-10T15:12:41.000Z,998.5
2023-05-10T15:13:58.066Z,998.5
2023-05-10T15:15:14.313Z,998.5
2023-05-10T15:16:30.559Z,998.5
2023-05-10T15:17:46.784Z,998.5
2023-05-10T15:19:03.035Z,998.5
2023-05-10T15:20:19.266Z,998.5
2023-05-10T15:21:35.514Z,998.5
2023-05-10T15:22:51.747Z,998.5
2023-05-10T15:24:07.015Z,998.5
2023-05-10T15:25:23.253Z,998.5
2023-05-10T15:26:39.493Z,998.5
2023-05-10T15:27:55.718Z,998.5
2023-05-10T15:29:11.963Z,998.5
2023-05-10T15:30:28.214Z,998.6
2023-05-10T15:31:44.440Z,998.5
2023-05-10T15:33:00.686Z,998.5
2023-05-10T15:34:16.934Z,998.5
2023-05-10T15:35:33.168Z,998.5
2023-05-10T15:36:49.402Z,998.5
2023-05-10T15:38:05.651Z,998.5
2023-05-10T15:39:21.892Z,998.5
2023-05-10T15:40:37.134Z,998.5
2023-05-10T15:41:53.368Z,998.5
2023-05-10T15:43:09.620Z,998.6
2023-05-10T15:44:25.854Z,998.5
2023-05-10T15:45:42.108Z,998.6
2023-05-10T15:46:58.333Z,998.5
2023-05-10T15:48:14.581Z,998.5
2023-05-10T15:49:30.811Z,998.5
2023-05-10T15:50:47.045Z,998.5
2023-05-10T15:52:03.302Z,998.5
2023-05-10T15:53:19.567Z,998.5
2023-05-10T15:54:35.779Z,998.5
2023-05-10T15:55:52.012Z,998.5
2023-05-10T15:57:07.278Z,998.5
2023-05-10T15:58:23.517Z,998.5
2023-05-10T15:59:39.752Z,998.5
2023-05-10T16:00:55.999Z,998.6
2023-05-10T16:02:12.234Z,998.5
2023-05-10T16:03:28.463Z,998.6
2023-05-10T16:04:44.714Z,998.6
2023-05-10T16:06:00.945Z,998.6
2023-05-10T16:07:17.181Z,998.6
2023-05-10T16:08:33.427Z,998.6
2023-05-10T16:09:49.673Z,998.6
2023-05-10T16:11:05.909Z,998.6
2023-05-10T16:12:22.179Z,998.6
2023-05-10T16:13:37.408Z,998.5
2023-05-10T16:14:53.633Z,998.6
2023-05-10T16:16:09.884Z,998.6
2023-05-10T16:17:26.123Z,998.6
2023-05-10T16:18:42.354Z,998.6
2023-05-10T16:19:58.602Z,998.6
2023-05-10T16:21:14.852Z,998.6
2023-05-10T16:22:31.079Z,998.6
2023-05-10T16:23:47.313Z,998.6
2023-05-10T16:25:03.556Z,998.6
2023-05-10T16:26:19.801Z,998.6
2023-05-10T16:27:36.049Z,998.6
2023-05-10T16:28:52.285Z,998.6
2023-05-10T16:30:07.535Z,998.6
2023-05-10T16:31:23.775Z,998.6
2023-05-10T16:32:40.022Z,998.6
2023-05-10T16:33:56.277Z,998.6
2023-05-10T16:35:12.519Z,998.6
2023-05-10T16:36:28.731Z,998.6
2023-05-10T16:37:44.978Z,998.7